sensor_id;sensor_type;location;lat;lon;timestamp;pressure;altitude;pressure_sealevel;temperature;humidity
46379;BME280;32084;42.254;22.744;2023-07-24T00:00:06;95440.88;;;18.66;72.32
46379;BME280;32084;42.254;22.744;2023-07-24T00:02:32;95444.88;;;18.77;72.10
46379;BME280;32084;42.254;22.744;2023-07-24T00:04:58;95443.59;;;18.66;72.56
46379;BME280;32084;42.254;22.744;2023-07-24T00:07:24;95444.69;;;18.23;74.46
46379;BME280;32084;42.254;22.744;2023-07-24T00:09:50;95440.69;;;17.78;75.77
46379;BME280;32084;42.254;22.744;2023-07-24T00:12:16;95439.63;;;17.79;76.27
46379;BME280;32084;42.254;22.744;2023-07-24T00:14:42;95434.22;;;18.07;74.80
46379;BME280;32084;42.254;22.744;2023-07-24T00:17:08;95441.94;;;18.17;74.38
46379;BME280;32084;42.254;22.744;2023-07-24T00:19:34;95441.13;;;18.16;74.86
46379;BME280;32084;42.254;22.744;2023-07-24T00:22:00;95432.25;;;17.87;74.91
46379;BME280;32084;42.254;22.744;2023-07-24T00:24:26;95444.78;;;17.95;75.51
46379;BME280;32084;42.254;22.744;2023-07-24T00:26:52;95447.38;;;18.17;74.41
46379;BME280;32084;42.254;22.744;2023-07-24T00:29:18;95437.28;;;17.97;74.99
46379;BME280;32084;42.254;22.744;2023-07-24T00:31:44;95444.53;;;17.62;76.55
46379;BME280;32084;42.254;22.744;2023-07-24T00:34:10;95431.28;;;17.45;77.23
46379;BME280;32084;42.254;22.744;2023-07-24T00:36:37;95434.78;;;17.67;76.38
46379;BME280;32084;42.254;22.744;2023-07-24T00:39:02;95434.03;;;17.80;76.46
46379;BME280;32084;42.254;22.744;2023-07-24T00:41:28;95438.38;;;17.74;76.25
46379;BME280;32084;42.254;22.744;2023-07-24T00:43:54;95437.41;;;17.54;76.77
46379;BME280;32084;42.254;22.744;2023-07-24T00:46:20;95430.38;;;17.31;77.02
46379;BME280;32084;42.254;22.744;2023-07-24T00:48:46;95436.38;;;17.27;77.42
46379;BME280;32084;42.254;22.744;2023-07-24T00:51:13;95438.34;;;17.40;77.34
46379;BME280;32084;42.254;22.744;2023-07-24T00:53:39;95434.31;;;17.57;76.84
46379;BME280;32084;42.254;22.744;2023-07-24T00:56:05;95433.78;;;17.75;75.72
46379;BME280;32084;42.254;22.744;2023-07-24T00:58:31;95437.56;;;17.81;75.95
46379;BME280;32084;42.254;22.744;2023-07-24T01:00:57;95439.25;;;17.82;76.26
46379;BME280;32084;42.254;22.744;2023-07-24T01:03:25;95434.53;;;17.62;76.21
46379;BME280;32084;42.254;22.744;2023-07-24T01:05:56;95429.91;;;17.49;76.58
46379;BME280;32084;42.254;22.744;2023-07-24T01:08:22;95421.25;;;17.32;77.13
46379;BME280;32084;42.254;22.744;2023-07-24T01:10:49;95430.44;;;17.38;77.40
46379;BME280;32084;42.254;22.744;2023-07-24T01:13:15;95423.78;;;17.69;75.41
46379;BME280;32084;42.254;22.744;2023-07-24T01:15:45;95425.84;;;17.67;76.15
46379;BME280;32084;42.254;22.744;2023-07-24T01:18:13;95425.22;;;17.65;76.29
46379;BME280;32084;42.254;22.744;2023-07-24T01:20:43;95428.84;;;17.50;76.82
46379;BME280;32084;42.254;22.744;2023-07-24T01:25:58;95421.00;;;17.62;75.87
46379;BME280;32084;42.254;22.744;2023-07-24T01:28:25;95425.66;;;17.68;75.68
46379;BME280;32084;42.254;22.744;2023-07-24T01:30:51;95420.06;;;17.42;76.82
46379;BME280;32084;42.254;22.744;2023-07-24T01:33:17;95421.53;;;17.44;76.70
46379;BME280;32084;42.254;22.744;2023-07-24T01:35:43;95418.72;;;17.59;75.84
46379;BME280;32084;42.254;22.744;2023-07-24T01:38:13;95418.50;;;17.89;74.91
46379;BME280;32084;42.254;22.744;2023-07-24T01:40:42;95424.41;;;17.71;75.66
46379;BME280;32084;42.254;22.744;2023-07-24T01:43:09;95434.59;;;17.69;75.39
46379;BME280;32084;42.254;22.744;2023-07-24T01:45:35;95427.22;;;17.56;75.89
46379;BME280;32084;42.254;22.744;2023-07-24T01:48:03;95430.09;;;17.20;77.66
46379;BME280;32084;42.254;22.744;2023-07-24T01:50:29;95426.19;;;17.01;78.69
46379;BME280;32084;42.254;22.744;2023-07-24T01:52:55;95430.69;;;16.93;78.54
46379;BME280;32084;42.254;22.744;2023-07-24T01:55:21;95429.81;;;17.14;78.22
46379;BME280;32084;42.254;22.744;2023-07-24T01:57:47;95425.31;;;17.22;77.66
46379;BME280;32084;42.254;22.744;2023-07-24T02:00:13;95429.59;;;17.09;78.53
46379;BME280;32084;42.254;22.744;2023-07-24T02:02:38;95435.81;;;17.10;78.87
46379;BME280;32084;42.254;22.744;2023-07-24T02:05:04;95433.75;;;17.12;78.10
46379;BME280;32084;42.254;22.744;2023-07-24T02:07:31;95428.91;;;17.07;79.24
46379;BME280;32084;42.254;22.744;2023-07-24T02:09:57;95423.81;;;16.91;78.95
46379;BME280;32084;42.254;22.744;2023-07-24T02:12:23;95419.97;;;16.64;79.88
46379;BME280;32084;42.254;22.744;2023-07-24T02:14:48;95425.66;;;16.32;81.27
46379;BME280;32084;42.254;22.744;2023-07-24T02:17:17;95420.13;;;16.19;82.05
46379;BME280;32084;42.254;22.744;2023-07-24T02:19:43;95423.88;;;16.39;81.19
46379;BME280;32084;42.254;22.744;2023-07-24T02:22:10;95418.56;;;16.68;79.33
46379;BME280;32084;42.254;22.744;2023-07-24T02:24:35;95428.41;;;16.75;78.88
46379;BME280;32084;42.254;22.744;2023-07-24T02:27:01;95418.34;;;16.69;79.38
46379;BME280;32084;42.254;22.744;2023-07-24T02:29:27;95422.09;;;16.47;79.69
46379;BME280;32084;42.254;22.744;2023-07-24T02:31:54;95423.41;;;16.14;80.77
46379;BME280;32084;42.254;22.744;2023-07-24T02:34:20;95414.84;;;16.11;81.21
46379;BME280;32084;42.254;22.744;2023-07-24T02:36:52;95423.88;;;16.03;81.84
46379;BME280;32084;42.254;22.744;2023-07-24T02:39:18;95418.72;;;16.23;80.47
46379;BME280;32084;42.254;22.744;2023-07-24T02:41:44;95421.28;;;16.68;78.45
46379;BME280;32084;42.254;22.744;2023-07-24T02:44:11;95426.44;;;16.84;77.91
46379;BME280;32084;42.254;22.744;2023-07-24T02:46:37;95423.84;;;16.76;78.20
46379;BME280;32084;42.254;22.744;2023-07-24T02:49:03;95424.16;;;16.66;79.05
46379;BME280;32084;42.254;22.744;2023-07-24T02:51:28;95426.53;;;16.54;79.17
46379;BME280;32084;42.254;22.744;2023-07-24T02:53:54;95422.78;;;16.34;79.84
46379;BME280;32084;42.254;22.744;2023-07-24T02:56:21;95428.19;;;16.34;80.04
46379;BME280;32084;42.254;22.744;2023-07-24T02:58:47;95434.75;;;16.46;79.02
46379;BME280;32084;42.254;22.744;2023-07-24T03:01:13;95433.91;;;16.46;79.69
46379;BME280;32084;42.254;22.744;2023-07-24T03:03:40;95434.09;;;16.44;80.14
46379;BME280;32084;42.254;22.744;2023-07-24T03:06:06;95437.59;;;16.23;80.20
46379;BME280;32084;42.254;22.744;2023-07-24T03:08:32;95428.41;;;16.03;80.77
46379;BME280;32084;42.254;22.744;2023-07-24T03:10:58;95430.53;;;16.22;80.69
46379;BME280;32084;42.254;22.744;2023-07-24T03:13:24;95427.88;;;16.44;79.63
46379;BME280;32084;42.254;22.744;2023-07-24T03:15:51;95433.31;;;16.29;79.57
46379;BME280;32084;42.254;22.744;2023-07-24T03:18:17;95436.78;;;16.08;80.84
46379;BME280;32084;42.254;22.744;2023-07-24T03:20:43;95431.56;;;16.21;81.12
46379;BME280;32084;42.254;22.744;2023-07-24T03:23:09;95437.78;;;16.22;80.87
46379;BME280;32084;42.254;22.744;2023-07-24T03:25:35;95442.47;;;15.98;81.36
46379;BME280;32084;42.254;22.744;2023-07-24T03:28:01;95434.09;;;15.78;82.30
46379;BME280;32084;42.254;22.744;2023-07-24T03:30:28;95438.75;;;15.69;82.88
46379;BME280;32084;42.254;22.744;2023-07-24T03:32:54;95435.97;;;15.92;82.08
46379;BME280;32084;42.254;22.744;2023-07-24T03:35:20;95429.88;;;16.20;81.22
46379;BME280;32084;42.254;22.744;2023-07-24T03:37:46;95430.16;;;16.10;81.33
46379;BME280;32084;42.254;22.744;2023-07-24T03:40:12;95430.09;;;15.89;82.38
46379;BME280;32084;42.254;22.744;2023-07-24T03:42:38;95422.38;;;16.00;81.67
46379;BME280;32084;42.254;22.744;2023-07-24T03:45:04;95432.53;;;15.84;82.38
46379;BME280;32084;42.254;22.744;2023-07-24T03:47:30;95436.06;;;15.84;83.16
46379;BME280;32084;42.254;22.744;2023-07-24T03:49:56;95430.00;;;15.97;82.61
46379;BME280;32084;42.254;22.744;2023-07-24T03:52:22;95432.94;;;16.32;80.76
46379;BME280;32084;42.254;22.744;2023-07-24T03:54:47;95427.28;;;16.48;79.96
46379;BME280;32084;42.254;22.744;2023-07-24T03:57:13;95428.38;;;16.54;80.17
46379;BME280;32084;42.254;22.744;2023-07-24T03:59:39;95435.28;;;16.56;80.61
46379;BME280;32084;42.254;22.744;2023-07-24T04:02:05;95433.28;;;16.65;80.44
46379;BME280;32084;42.254;22.744;2023-07-24T04:04:31;95437.06;;;16.71;80.68
46379;BME280;32084;42.254;22.744;2023-07-24T04:06:58;95442.38;;;16.79;80.13
46379;BME280;32084;42.254;22.744;2023-07-24T04:09:24;95440.56;;;16.86;80.56
46379;BME280;32084;42.254;22.744;2023-07-24T04:11:50;95438.91;;;16.85;80.99
46379;BME280;32084;42.254;22.744;2023-07-24T04:14:16;95448.78;;;16.78;81.71
46379;BME280;32084;42.254;22.744;2023-07-24T04:16:42;95447.28;;;16.90;80.49
46379;BME280;32084;42.254;22.744;2023-07-24T04:19:08;95452.59;;;17.27;78.73
46379;BME280;32084;42.254;22.744;2023-07-24T04:21:34;95452.44;;;17.63;77.30
46379;BME280;32084;42.254;22.744;2023-07-24T04:24:00;95456.59;;;17.66;78.78
46379;BME280;32084;42.254;22.744;2023-07-24T04:26:26;95454.94;;;17.65;79.36
46379;BME280;32084;42.254;22.744;2023-07-24T04:28:53;95446.59;;;17.88;78.09
46379;BME280;32084;42.254;22.744;2023-07-24T04:31:19;95452.75;;;18.10;75.86
46379;BME280;32084;42.254;22.744;2023-07-24T04:33:45;95450.94;;;18.24;74.76
46379;BME280;32084;42.254;22.744;2023-07-24T04:36:11;95451.63;;;18.39;74.58
46379;BME280;32084;42.254;22.744;2023-07-24T04:38:37;95458.78;;;18.53;76.21
46379;BME280;32084;42.254;22.744;2023-07-24T04:41:03;95462.31;;;18.61;73.92
46379;BME280;32084;42.254;22.744;2023-07-24T04:43:29;95446.53;;;18.71;73.52
46379;BME280;32084;42.254;22.744;2023-07-24T04:45:55;95447.59;;;18.83;71.45
46379;BME280;32084;42.254;22.744;2023-07-24T04:48:21;95441.00;;;18.99;71.93
46379;BME280;32084;42.254;22.744;2023-07-24T04:50:52;95450.59;;;19.08;71.29
46379;BME280;32084;42.254;22.744;2023-07-24T04:53:18;95446.22;;;19.21;71.30
46379;BME280;32084;42.254;22.744;2023-07-24T04:55:45;95442.84;;;19.25;69.09
46379;BME280;32084;42.254;22.744;2023-07-24T04:58:11;95438.06;;;19.54;68.86
46379;BME280;32084;42.254;22.744;2023-07-24T05:00:37;95441.00;;;19.73;67.37
46379;BME280;32084;42.254;22.744;2023-07-24T05:03:03;95451.00;;;19.92;66.50
46379;BME280;32084;42.254;22.744;2023-07-24T05:05:29;95449.72;;;19.88;64.63
46379;BME280;32084;42.254;22.744;2023-07-24T05:07:54;95423.66;;;19.67;65.42
46379;BME280;32084;42.254;22.744;2023-07-24T05:10:20;95448.44;;;20.04;65.51
46379;BME280;32084;42.254;22.744;2023-07-24T05:12:46;95449.28;;;20.11;65.64
46379;BME280;32084;42.254;22.744;2023-07-24T05:15:12;95447.34;;;20.25;64.53
46379;BME280;32084;42.254;22.744;2023-07-24T05:17:45;95445.91;;;20.22;62.33
46379;BME280;32084;42.254;22.744;2023-07-24T05:20:11;95454.81;;;20.29;63.40
46379;BME280;32084;42.254;22.744;2023-07-24T05:22:37;95449.53;;;20.48;62.89
46379;BME280;32084;42.254;22.744;2023-07-24T05:25:03;95449.53;;;20.55;58.39
46379;BME280;32084;42.254;22.744;2023-07-24T05:27:29;95449.41;;;20.81;58.61
46379;BME280;32084;42.254;22.744;2023-07-24T05:29:55;95456.25;;;20.91;60.16
46379;BME280;32084;42.254;22.744;2023-07-24T05:32:21;95457.13;;;20.84;58.58
46379;BME280;32084;42.254;22.744;2023-07-24T05:34:47;95453.69;;;20.96;56.75
46379;BME280;32084;42.254;22.744;2023-07-24T05:37:13;95460.91;;;21.15;54.62
46379;BME280;32084;42.254;22.744;2023-07-24T05:39:39;95459.91;;;21.10;58.00
46379;BME280;32084;42.254;22.744;2023-07-24T05:42:05;95452.81;;;21.34;59.55
46379;BME280;32084;42.254;22.744;2023-07-24T05:44:31;95447.97;;;21.36;59.93
46379;BME280;32084;42.254;22.744;2023-07-24T05:46:58;95456.94;;;21.43;59.97
46379;BME280;32084;42.254;22.744;2023-07-24T05:49:24;95455.50;;;21.66;59.95
46379;BME280;32084;42.254;22.744;2023-07-24T05:51:51;95461.41;;;21.88;59.91
46379;BME280;32084;42.254;22.744;2023-07-24T05:54:19;95460.94;;;21.91;59.98
46379;BME280;32084;42.254;22.744;2023-07-24T05:56:45;95462.81;;;21.90;58.07
46379;BME280;32084;42.254;22.744;2023-07-24T05:59:11;95457.75;;;21.94;59.77
46379;BME280;32084;42.254;22.744;2023-07-24T06:01:37;95456.72;;;22.13;58.44
46379;BME280;32084;42.254;22.744;2023-07-24T06:04:03;95454.09;;;22.07;55.95
46379;BME280;32084;42.254;22.744;2023-07-24T06:06:29;95455.59;;;22.02;56.90
46379;BME280;32084;42.254;22.744;2023-07-24T06:08:55;95462.00;;;22.33;58.15
46379;BME280;32084;42.254;22.744;2023-07-24T06:11:21;95453.34;;;22.55;55.93
46379;BME280;32084;42.254;22.744;2023-07-24T06:13:48;95460.38;;;22.44;56.92
46379;BME280;32084;42.254;22.744;2023-07-24T06:16:14;95454.69;;;22.64;54.92
46379;BME280;32084;42.254;22.744;2023-07-24T06:18:40;95442.59;;;22.90;56.02
46379;BME280;32084;42.254;22.744;2023-07-24T06:21:08;95446.69;;;23.30;55.23
46379;BME280;32084;42.254;22.744;2023-07-24T06:23:34;95450.59;;;23.46;54.75
46379;BME280;32084;42.254;22.744;2023-07-24T06:26:00;95447.78;;;23.52;56.20
46379;BME280;32084;42.254;22.744;2023-07-24T06:28:26;95445.88;;;23.41;56.40
46379;BME280;32084;42.254;22.744;2023-07-24T06:30:52;95449.75;;;23.33;54.62
46379;BME280;32084;42.254;22.744;2023-07-24T06:33:19;95436.72;;;23.35;57.29
46379;BME280;32084;42.254;22.744;2023-07-24T06:35:45;95443.38;;;23.39;58.56
46379;BME280;32084;42.254;22.744;2023-07-24T06:38:11;95441.13;;;23.48;54.25
46379;BME280;32084;42.254;22.744;2023-07-24T06:40:37;95442.09;;;23.77;54.90
46379;BME280;32084;42.254;22.744;2023-07-24T06:43:03;95436.06;;;24.23;53.12
46379;BME280;32084;42.254;22.744;2023-07-24T06:45:29;95434.47;;;24.39;54.15
46379;BME280;32084;42.254;22.744;2023-07-24T06:47:54;95436.97;;;24.40;54.05
46379;BME280;32084;42.254;22.744;2023-07-24T06:50:20;95434.81;;;24.42;55.82
46379;BME280;32084;42.254;22.744;2023-07-24T06:52:46;95435.28;;;24.63;56.19
46379;BME280;32084;42.254;22.744;2023-07-24T06:55:13;95439.94;;;24.91;53.88
46379;BME280;32084;42.254;22.744;2023-07-24T06:57:39;95438.91;;;25.09;53.04
46379;BME280;32084;42.254;22.744;2023-07-24T07:00:05;95445.75;;;25.23;52.33
46379;BME280;32084;42.254;22.744;2023-07-24T07:02:33;95427.34;;;25.36;54.60
46379;BME280;32084;42.254;22.744;2023-07-24T07:04:59;95424.63;;;25.36;54.00
46379;BME280;32084;42.254;22.744;2023-07-24T07:07:25;95432.16;;;25.45;50.49
46379;BME280;32084;42.254;22.744;2023-07-24T07:09:51;95423.81;;;25.35;51.46
46379;BME280;32084;42.254;22.744;2023-07-24T07:12:17;95421.97;;;25.58;52.90
46379;BME280;32084;42.254;22.744;2023-07-24T07:14:43;95423.06;;;25.57;51.33
46379;BME280;32084;42.254;22.744;2023-07-24T07:17:09;95418.72;;;25.78;53.02
46379;BME280;32084;42.254;22.744;2023-07-24T07:19:35;95418.50;;;25.96;50.53
46379;BME280;32084;42.254;22.744;2023-07-24T07:22:01;95421.44;;;26.12;50.08
46379;BME280;32084;42.254;22.744;2023-07-24T07:24:27;95418.94;;;26.10;48.16
46379;BME280;32084;42.254;22.744;2023-07-24T07:26:53;95422.38;;;26.39;47.25
46379;BME280;32084;42.254;22.744;2023-07-24T07:29:19;95422.72;;;26.65;46.69
46379;BME280;32084;42.254;22.744;2023-07-24T07:31:45;95423.03;;;26.46;47.82
46379;BME280;32084;42.254;22.744;2023-07-24T07:34:11;95395.97;;;26.33;47.38
46379;BME280;32084;42.254;22.744;2023-07-24T07:36:37;95425.13;;;26.39;44.71
46379;BME280;32084;42.254;22.744;2023-07-24T07:39:03;95417.25;;;26.48;46.37
46379;BME280;32084;42.254;22.744;2023-07-24T07:41:29;95425.41;;;26.60;45.07
46379;BME280;32084;42.254;22.744;2023-07-24T07:43:56;95420.78;;;26.87;44.55
46379;BME280;32084;42.254;22.744;2023-07-24T07:46:22;95422.25;;;26.95;46.61
46379;BME280;32084;42.254;22.744;2023-07-24T07:48:48;95424.53;;;27.03;44.96
46379;BME280;32084;42.254;22.744;2023-07-24T07:51:15;95419.94;;;27.09;43.78
46379;BME280;32084;42.254;22.744;2023-07-24T07:53:41;95407.94;;;26.93;45.07
46379;BME280;32084;42.254;22.744;2023-07-24T07:56:07;95417.59;;;27.23;43.38
46379;BME280;32084;42.254;22.744;2023-07-24T07:58:33;95408.09;;;27.31;43.48
46379;BME280;32084;42.254;22.744;2023-07-24T08:01:03;95415.09;;;27.21;42.13
46379;BME280;32084;42.254;22.744;2023-07-24T08:03:29;95417.50;;;27.40;42.89
46379;BME280;32084;42.254;22.744;2023-07-24T08:05:58;95408.66;;;27.65;43.44
46379;BME280;32084;42.254;22.744;2023-07-24T08:08:25;95403.22;;;27.75;41.78
46379;BME280;32084;42.254;22.744;2023-07-24T08:10:51;95405.63;;;27.99;42.10
46379;BME280;32084;42.254;22.744;2023-07-24T08:13:17;95404.03;;;28.13;42.70
46379;BME280;32084;42.254;22.744;2023-07-24T08:15:43;95396.25;;;28.42;42.99
46379;BME280;32084;42.254;22.744;2023-07-24T08:18:09;95390.53;;;28.54;43.57
46379;BME280;32084;42.254;22.744;2023-07-24T08:20:35;95391.41;;;28.70;42.95
46379;BME280;32084;42.254;22.744;2023-07-24T08:23:01;95391.19;;;28.82;41.14
46379;BME280;32084;42.254;22.744;2023-07-24T08:25:27;95388.44;;;28.82;41.73
46379;BME280;32084;42.254;22.744;2023-07-24T08:27:53;95390.66;;;28.80;41.30
46379;BME280;32084;42.254;22.744;2023-07-24T08:30:19;95392.28;;;28.81;40.83
46379;BME280;32084;42.254;22.744;2023-07-24T08:32:45;95384.63;;;28.93;42.74
46379;BME280;32084;42.254;22.744;2023-07-24T08:35:12;95382.97;;;28.97;42.81
46379;BME280;32084;42.254;22.744;2023-07-24T08:37:38;95381.88;;;29.04;42.08
46379;BME280;32084;42.254;22.744;2023-07-24T08:40:04;95377.25;;;29.19;42.59
46379;BME280;32084;42.254;22.744;2023-07-24T08:42:30;95376.72;;;29.28;43.16
46379;BME280;32084;42.254;22.744;2023-07-24T08:44:57;95375.63;;;29.49;42.56
46379;BME280;32084;42.254;22.744;2023-07-24T08:47:24;95369.31;;;29.54;42.87
46379;BME280;32084;42.254;22.744;2023-07-24T08:49:50;95379.19;;;29.65;40.49
46379;BME280;32084;42.254;22.744;2023-07-24T08:52:19;95368.72;;;29.88;43.55
46379;BME280;32084;42.254;22.744;2023-07-24T08:54:45;95368.44;;;30.10;43.82
46379;BME280;32084;42.254;22.744;2023-07-24T08:57:11;95371.75;;;30.02;41.29
46379;BME280;32084;42.254;22.744;2023-07-24T08:59:38;95356.06;;;29.92;43.36
46379;BME280;32084;42.254;22.744;2023-07-24T09:02:04;95360.47;;;29.93;41.57
46379;BME280;32084;42.254;22.744;2023-07-24T09:04:31;95354.69;;;30.00;41.95
46379;BME280;32084;42.254;22.744;2023-07-24T09:06:57;95351.06;;;30.04;41.97
46379;BME280;32084;42.254;22.744;2023-07-24T09:09:28;95348.53;;;30.18;41.99
46379;BME280;32084;42.254;22.744;2023-07-24T09:11:55;95343.81;;;30.29;43.25
46379;BME280;32084;42.254;22.744;2023-07-24T09:14:21;95331.41;;;30.42;42.73
46379;BME280;32084;42.254;22.744;2023-07-24T09:16:47;95347.09;;;30.46;40.03
46379;BME280;32084;42.254;22.744;2023-07-24T09:19:17;95340.16;;;30.59;42.60
46379;BME280;32084;42.254;22.744;2023-07-24T09:21:43;95343.09;;;30.73;41.08
46379;BME280;32084;42.254;22.744;2023-07-24T09:24:13;95327.00;;;30.90;42.37
46379;BME280;32084;42.254;22.744;2023-07-24T09:26:46;95325.63;;;30.93;41.38
46379;BME280;32084;42.254;22.744;2023-07-24T09:29:12;95325.25;;;31.10;40.10
46379;BME280;32084;42.254;22.744;2023-07-24T09:31:38;95334.09;;;31.07;39.66
46379;BME280;32084;42.254;22.744;2023-07-24T09:34:13;95321.69;;;31.04;39.54
46379;BME280;32084;42.254;22.744;2023-07-24T09:36:39;95326.06;;;31.10;39.15
46379;BME280;32084;42.254;22.744;2023-07-24T09:39:05;95323.44;;;31.29;40.01
46379;BME280;32084;42.254;22.744;2023-07-24T09:41:32;95321.03;;;31.57;40.19
46379;BME280;32084;42.254;22.744;2023-07-24T09:43:58;95318.91;;;31.78;40.38
46379;BME280;32084;42.254;22.744;2023-07-24T09:46:24;95325.56;;;32.01;38.29
46379;BME280;32084;42.254;22.744;2023-07-24T09:48:50;95315.53;;;32.10;39.89
46379;BME280;32084;42.254;22.744;2023-07-24T09:51:16;95309.63;;;32.17;39.67
46379;BME280;32084;42.254;22.744;2023-07-24T09:53:58;95298.22;;;32.24;39.98
46379;BME280;32084;42.254;22.744;2023-07-24T09:56:26;95305.91;;;32.27;37.31
46379;BME280;32084;42.254;22.744;2023-07-24T09:58:53;95311.59;;;32.17;37.18
46379;BME280;32084;42.254;22.744;2023-07-24T10:01:20;95298.94;;;32.35;39.23
46379;BME280;32084;42.254;22.744;2023-07-24T10:03:47;95291.75;;;32.58;38.67
46379;BME280;32084;42.254;22.744;2023-07-24T10:06:15;95299.53;;;32.75;37.19
46379;BME280;32084;42.254;22.744;2023-07-24T10:08:41;95290.84;;;32.81;36.71
46379;BME280;32084;42.254;22.744;2023-07-24T10:11:08;95292.94;;;32.90;37.49
46379;BME280;32084;42.254;22.744;2023-07-24T10:13:35;95272.69;;;32.75;39.11
46379;BME280;32084;42.254;22.744;2023-07-24T10:16:02;95275.44;;;32.75;38.92
46379;BME280;32084;42.254;22.744;2023-07-24T10:18:30;95282.31;;;32.78;36.85
46379;BME280;32084;42.254;22.744;2023-07-24T10:21:06;95281.03;;;32.89;37.09
46379;BME280;32084;42.254;22.744;2023-07-24T10:23:36;95264.28;;;32.99;40.42
46379;BME280;32084;42.254;22.744;2023-07-24T10:26:03;95264.38;;;32.75;38.72
46379;BME280;32084;42.254;22.744;2023-07-24T10:28:37;95260.34;;;32.67;37.25
46379;BME280;32084;42.254;22.744;2023-07-24T10:31:08;95263.03;;;32.73;35.78
46379;BME280;32084;42.254;22.744;2023-07-24T10:33:44;95276.63;;;33.07;35.45
46379;BME280;32084;42.254;22.744;2023-07-24T10:36:11;95269.91;;;33.13;36.13
46379;BME280;32084;42.254;22.744;2023-07-24T10:38:40;95273.47;;;32.95;34.57
46379;BME280;32084;42.254;22.744;2023-07-24T10:41:06;95265.47;;;32.74;35.21
46379;BME280;32084;42.254;22.744;2023-07-24T10:43:46;95260.63;;;32.66;35.72
46379;BME280;32084;42.254;22.744;2023-07-24T10:46:13;95258.38;;;32.68;35.70
46379;BME280;32084;42.254;22.744;2023-07-24T10:49:00;95255.53;;;32.73;36.25
46379;BME280;32084;42.254;22.744;2023-07-24T10:51:26;95249.75;;;33.07;35.23
46379;BME280;32084;42.254;22.744;2023-07-24T10:53:52;95234.56;;;33.05;37.78
46379;BME280;32084;42.254;22.744;2023-07-24T10:56:19;95242.44;;;32.98;35.65
46379;BME280;32084;42.254;22.744;2023-07-24T10:58:45;95224.16;;;32.97;38.84
46379;BME280;32084;42.254;22.744;2023-07-24T11:01:11;95221.84;;;33.04;36.32
46379;BME280;32084;42.254;22.744;2023-07-24T11:03:37;95221.25;;;33.07;38.17
46379;BME280;32084;42.254;22.744;2023-07-24T11:06:04;95214.25;;;33.10;37.93
46379;BME280;32084;42.254;22.744;2023-07-24T11:08:30;95217.72;;;33.20;34.68
46379;BME280;32084;42.254;22.744;2023-07-24T11:10:57;95218.84;;;33.19;35.69
46379;BME280;32084;42.254;22.744;2023-07-24T11:13:24;95211.44;;;33.15;38.10
46379;BME280;32084;42.254;22.744;2023-07-24T11:15:52;95214.84;;;33.25;36.42
46379;BME280;32084;42.254;22.744;2023-07-24T11:18:19;95216.94;;;33.34;38.69
46379;BME280;32084;42.254;22.744;2023-07-24T11:20:55;95221.13;;;33.31;35.27
46379;BME280;32084;42.254;22.744;2023-07-24T11:23:21;95217.31;;;33.27;35.88
46379;BME280;32084;42.254;22.744;2023-07-24T11:25:51;95214.25;;;33.29;38.32
46379;BME280;32084;42.254;22.744;2023-07-24T11:28:17;95204.19;;;33.00;37.63
46379;BME280;32084;42.254;22.744;2023-07-24T11:30:43;95199.47;;;33.00;36.64
46379;BME280;32084;42.254;22.744;2023-07-24T11:33:10;95207.75;;;33.19;35.22
46379;BME280;32084;42.254;22.744;2023-07-24T11:35:37;95211.47;;;33.29;34.27
46379;BME280;32084;42.254;22.744;2023-07-24T11:38:07;95215.56;;;33.31;32.09
46379;BME280;32084;42.254;22.744;2023-07-24T11:40:38;95216.31;;;33.37;32.36
46379;BME280;32084;42.254;22.744;2023-07-24T11:43:04;95202.06;;;33.43;33.68
46379;BME280;32084;42.254;22.744;2023-07-24T11:48:52;95198.44;;;33.76;33.54
46379;BME280;32084;42.254;22.744;2023-07-24T11:51:19;95192.88;;;33.76;33.75
46379;BME280;32084;42.254;22.744;2023-07-24T11:53:45;95188.06;;;33.68;34.02
46379;BME280;32084;42.254;22.744;2023-07-24T11:56:14;95179.13;;;33.71;33.21
46379;BME280;32084;42.254;22.744;2023-07-24T11:58:40;95177.38;;;33.75;31.53
46379;BME280;32084;42.254;22.744;2023-07-24T12:01:06;95184.34;;;33.72;32.32
46379;BME280;32084;42.254;22.744;2023-07-24T12:03:32;95178.59;;;33.69;32.48
46379;BME280;32084;42.254;22.744;2023-07-24T12:05:58;95174.59;;;33.75;32.63
46379;BME280;32084;42.254;22.744;2023-07-24T12:08:34;95180.34;;;33.78;32.81
46379;BME280;32084;42.254;22.744;2023-07-24T12:11:00;95176.66;;;33.83;32.30
46379;BME280;32084;42.254;22.744;2023-07-24T12:13:26;95179.44;;;33.97;32.55
46379;BME280;32084;42.254;22.744;2023-07-24T12:15:54;95182.16;;;34.11;33.67
46379;BME280;32084;42.254;22.744;2023-07-24T12:18:20;95169.97;;;34.12;31.88
46379;BME280;32084;42.254;22.744;2023-07-24T12:20:46;95174.16;;;34.09;31.77
46379;BME280;32084;42.254;22.744;2023-07-24T12:23:13;95175.81;;;34.10;31.75
46379;BME280;32084;42.254;22.744;2023-07-24T12:25:38;95173.78;;;34.16;32.59
46379;BME280;32084;42.254;22.744;2023-07-24T12:28:04;95169.75;;;34.22;31.55
46379;BME280;32084;42.254;22.744;2023-07-24T12:30:30;95167.69;;;34.14;31.65
46379;BME280;32084;42.254;22.744;2023-07-24T12:32:57;95168.00;;;34.12;31.97
46379;BME280;32084;42.254;22.744;2023-07-24T12:35:23;95156.72;;;34.22;32.73
46379;BME280;32084;42.254;22.744;2023-07-24T12:37:49;95158.44;;;34.32;30.80
46379;BME280;32084;42.254;22.744;2023-07-24T12:40:15;95160.78;;;34.39;31.08
46379;BME280;32084;42.254;22.744;2023-07-24T12:42:41;95149.91;;;34.29;31.29
46379;BME280;32084;42.254;22.744;2023-07-24T12:45:07;95156.19;;;34.20;30.62
46379;BME280;32084;42.254;22.744;2023-07-24T12:47:33;95140.66;;;34.33;31.36
46379;BME280;32084;42.254;22.744;2023-07-24T12:50:00;95143.31;;;34.38;30.58
46379;BME280;32084;42.254;22.744;2023-07-24T12:52:26;95142.91;;;34.31;30.77